Time;durP1;ratioP1;P1;durP2;ratioP2;P2;SDS_P1;SDS_P2;PMS_P1;PMS_P2;Temp;Humidity;BMP_temperature;BMP_pressure;BME280_temperature;BME280_humidity;BME280_pressure;Samples;Min_cycle;Max_cycle;Signal;HPM_P1;HPM_P2
2023/03/09 00:00:21;;;;;;;;;;;;;;;8.81;100.00;94138.44;5013844;28;19959;-77
2023/03/09 00:02:48;;;;;;;;;;;;;;;8.79;100.00;94141.31;5033853;28;19956;-76
2023/03/09 00:05:16;;;;;;;;;;;;;;;8.76;100.00;94149.69;5016533;28;19947;-76
2023/03/09 00:07:42;;;;;;;;;;;;;;;8.73;100.00;94152.81;5033939;28;19951;-76
2023/03/09 00:10:10;;;;;;;;;;;;;;;8.73;100.00;94144.97;5034337;28;19969;-76
2023/03/09 00:12:36;;;;;;;;;;;;;;;8.71;100.00;94160.91;5034044;28;19960;-76
2023/03/09 00:15:02;;;;;;;;;;;;;;;8.70;100.00;94171.63;5034074;28;19953;-76
2023/03/09 00:17:28;;;;;;;;;;;;;;;8.69;100.00;94206.63;5033561;28;19953;-76
2023/03/09 00:20:00;;;;;;;;;;;;;;;8.65;100.00;94287.38;5033608;28;20033;-75
2023/03/09 00:22:26;;;;;;;;;;;;;;;8.64;100.00;94243.22;5033735;28;20301;-76
2023/03/09 00:24:56;;;;;;;;;;;;;;;8.63;100.00;94250.28;5033753;28;19939;-76
2023/03/09 00:27:22;;;;;;;;;;;;;;;8.61;100.00;94244.50;5033627;28;20429;-75
2023/03/09 00:29:47;;;;;;;;;;;;;;;8.61;100.00;94251.53;5033552;28;19967;-76
2023/03/09 00:32:13;;;;;;;;;;;;;;;8.56;100.00;94262.78;5033436;28;19962;-75
2023/03/09 00:34:39;;;;;;;;;;;;;;;8.51;100.00;94266.16;5033435;28;20054;-76
2023/03/09 00:37:05;;;;;;;;;;;;;;;8.45;100.00;94269.03;5033600;28;20361;-76
2023/03/09 00:39:31;;;;;;;;;;;;;;;8.39;100.00;94262.97;5033299;28;20364;-75
2023/03/09 00:41:57;;;;;;;;;;;;;;;8.36;100.00;94270.53;5034116;28;20017;-74
2023/03/09 00:44:22;;;;;;;;;;;;;;;8.33;100.00;94271.84;5033291;28;19997;-74
2023/03/09 00:46:48;;;;;;;;;;;;;;;8.32;100.00;94267.66;5033646;28;19951;-75
2023/03/09 00:49:15;;;;;;;;;;;;;;;8.29;100.00;94268.16;5015862;28;19988;-75
2023/03/09 00:51:44;;;;;;;;;;;;;;;8.28;100.00;94267.38;5033155;28;20385;-75
2023/03/09 00:54:12;;;;;;;;;;;;;;;8.27;100.00;94280.69;5033041;28;19953;-75
2023/03/09 00:56:37;;;;;;;;;;;;;;;8.24;100.00;94279.38;5033374;28;19968;-75
2023/03/09 00:59:03;;;;;;;;;;;;;;;8.20;100.00;94301.81;5032738;28;19946;-75
2023/03/09 01:01:29;;;;;;;;;;;;;;;8.17;100.00;94317.19;5033214;28;19969;-75
2023/03/09 01:03:55;;;;;;;;;;;;;;;8.13;100.00;94327.38;5033006;28;20451;-75
2023/03/09 01:06:22;;;;;;;;;;;;;;;8.11;100.00;94329.47;5033046;28;20395;-76
2023/03/09 01:08:48;;;;;;;;;;;;;;;8.06;100.00;94353.72;5032868;28;19955;-74
2023/03/09 01:11:15;;;;;;;;;;;;;;;8.05;100.00;94356.56;5032458;28;20337;-75
2023/03/09 01:13:41;;;;;;;;;;;;;;;8.02;100.00;94347.44;5033360;28;19951;-75
2023/03/09 01:16:07;;;;;;;;;;;;;;;8.00;100.00;94338.25;5032807;28;19945;-75
2023/03/09 01:18:33;;;;;;;;;;;;;;;7.95;100.00;94325.97;5032786;28;19958;-74
2023/03/09 01:20:59;;;;;;;;;;;;;;;7.91;100.00;94330.13;5032653;28;19991;-74
2023/03/09 01:23:26;;;;;;;;;;;;;;;7.87;100.00;94337.69;5015160;28;20387;-76
2023/03/09 01:25:51;;;;;;;;;;;;;;;7.82;100.00;94332.44;5032741;28;19945;-74
2023/03/09 01:28:17;;;;;;;;;;;;;;;7.79;100.00;94298.22;5032699;28;20008;-74
2023/03/09 01:30:43;;;;;;;;;;;;;;;7.75;100.00;94304.97;5032612;28;19952;-74
2023/03/09 01:33:09;;;;;;;;;;;;;;;7.71;100.00;94294.28;5032492;28;19954;-76
2023/03/09 01:35:37;;;;;;;;;;;;;;;7.68;100.00;94300.78;5014682;28;19946;-74
2023/03/09 01:38:03;;;;;;;;;;;;;;;7.67;100.00;94298.44;5032727;28;19946;-74
2023/03/09 01:40:29;;;;;;;;;;;;;;;7.65;100.00;94258.78;5047793;28;19956;-74
2023/03/09 01:42:59;;;;;;;;;;;;;;;7.63;100.00;94302.59;5032658;28;19947;-75
2023/03/09 01:45:25;;;;;;;;;;;;;;;7.60;100.00;94331.75;5032327;28;19973;-75
2023/03/09 01:47:51;;;;;;;;;;;;;;;7.60;100.00;94352.63;5032405;28;20009;-75
2023/03/09 01:50:19;;;;;;;;;;;;;;;7.59;100.00;94379.75;5032048;28;19973;-74
2023/03/09 01:52:47;;;;;;;;;;;;;;;7.57;100.00;94380.00;5032145;28;19944;-75
2023/03/09 01:55:15;;;;;;;;;;;;;;;7.56;100.00;94385.47;5032275;28;19948;-75
2023/03/09 01:57:56;;;;;;;;;;;;;;;7.53;100.00;94371.88;5032177;28;19954;-75
2023/03/09 02:00:24;;;;;;;;;;;;;;;7.50;100.00;94314.25;5032173;28;20306;-75
2023/03/09 02:02:57;;;;;;;;;;;;;;;7.47;100.00;94265.19;5031937;28;19954;-75
2023/03/09 02:05:26;;;;;;;;;;;;;;;7.42;100.00;94268.53;5032488;28;19951;-74
2023/03/09 02:07:52;;;;;;;;;;;;;;;7.38;100.00;94280.50;5014401;28;19948;-75
2023/03/09 02:10:22;;;;;;;;;;;;;;;7.34;100.00;94282.06;5032242;28;19968;-74
2023/03/09 02:12:52;;;;;;;;;;;;;;;7.32;100.00;94281.50;5031881;28;19946;-75
2023/03/09 02:15:19;;;;;;;;;;;;;;;7.30;100.00;94270.56;5031803;28;19949;-74
2023/03/09 02:17:45;;;;;;;;;;;;;;;7.26;100.00;94266.88;5031924;28;19946;-74
2023/03/09 02:20:23;;;;;;;;;;;;;;;7.23;100.00;94273.38;5031836;28;20008;-75
2023/03/09 02:22:49;;;;;;;;;;;;;;;7.20;100.00;94258.25;5013450;28;20384;-74
2023/03/09 02:25:17;;;;;;;;;;;;;;;7.18;100.00;94269.94;5030822;28;19952;-74
2023/03/09 02:27:43;;;;;;;;;;;;;;;7.15;100.00;94258.19;5031849;28;19955;-75
2023/03/09 02:30:10;;;;;;;;;;;;;;;7.14;100.00;94268.88;5032782;28;19974;-75
2023/03/09 02:32:36;;;;;;;;;;;;;;;7.11;100.00;94259.72;5031650;28;19959;-75
2023/03/09 02:35:03;;;;;;;;;;;;;;;7.09;100.00;94262.56;5031970;28;19945;-74
2023/03/09 02:37:33;;;;;;;;;;;;;;;7.08;100.00;94263.63;5031867;28;20309;-75
2023/03/09 02:40:04;;;;;;;;;;;;;;;7.09;100.00;94282.66;5031382;28;19947;-77
2023/03/09 02:42:30;;;;;;;;;;;;;;;7.11;100.00;94278.75;5032044;28;19948;-75
2023/03/09 02:44:57;;;;;;;;;;;;;;;7.13;100.00;94275.13;5031573;28;20014;-75
2023/03/09 02:47:23;;;;;;;;;;;;;;;7.16;100.00;94267.59;5031836;28;19964;-75
2023/03/09 02:49:49;;;;;;;;;;;;;;;7.17;100.00;94278.81;5031383;28;20408;-74
2023/03/09 02:52:15;;;;;;;;;;;;;;;7.19;100.00;94279.34;5031413;28;19952;-75
2023/03/09 02:54:41;;;;;;;;;;;;;;;7.23;100.00;94296.06;5031255;28;19978;-75
2023/03/09 02:57:06;;;;;;;;;;;;;;;7.26;100.00;94279.91;5031410;28;19964;-75
2023/03/09 02:59:33;;;;;;;;;;;;;;;7.29;100.00;94298.44;5031557;28;20307;-75
2023/03/09 03:01:58;;;;;;;;;;;;;;;7.31;100.00;94291.16;5031417;28;20292;-76
2023/03/09 03:04:24;;;;;;;;;;;;;;;7.33;100.00;94296.13;5031480;28;19978;-75
2023/03/09 03:06:50;;;;;;;;;;;;;;;7.37;100.00;94317.25;5031486;28;19984;-75
2023/03/09 03:09:16;;;;;;;;;;;;;;;7.41;100.00;94333.97;5031099;28;20007;-76
2023/03/09 03:11:42;;;;;;;;;;;;;;;7.49;100.00;94349.94;5013454;28;19967;-75
2023/03/09 03:14:08;;;;;;;;;;;;;;;7.58;100.00;94384.19;5031634;28;19961;-76
2023/03/09 03:16:34;;;;;;;;;;;;;;;7.67;100.00;94363.66;5030911;28;19955;-74
2023/03/09 03:19:00;;;;;;;;;;;;;;;7.76;100.00;94375.19;5031459;28;19952;-75
2023/03/09 03:21:26;;;;;;;;;;;;;;;7.80;100.00;94397.13;5031235;28;20472;-75
2023/03/09 03:23:52;;;;;;;;;;;;;;;7.82;100.00;94399.50;5013423;28;20043;-75
2023/03/09 03:26:18;;;;;;;;;;;;;;;7.75;100.00;94425.81;5030960;28;19953;-74
2023/03/09 03:28:44;;;;;;;;;;;;;;;7.65;100.00;94423.88;5013111;28;19938;-75
2023/03/09 03:31:10;;;;;;;;;;;;;;;7.55;100.00;94429.00;5030897;28;19968;-74
2023/03/09 03:33:36;;;;;;;;;;;;;;;7.47;100.00;94445.09;5030699;28;19972;-75
2023/03/09 03:36:02;;;;;;;;;;;;;;;7.39;100.00;94435.13;5030674;28;19945;-74
2023/03/09 03:38:28;;;;;;;;;;;;;;;7.32;100.00;94459.56;5030752;28;19947;-75
2023/03/09 03:40:54;;;;;;;;;;;;;;;7.27;100.00;94450.94;5030611;28;20327;-75
2023/03/09 03:43:20;;;;;;;;;;;;;;;7.20;100.00;94456.34;5030837;28;20003;-75
2023/03/09 03:45:46;;;;;;;;;;;;;;;7.16;100.00;94455.25;5030754;28;19948;-75
2023/03/09 03:48:12;;;;;;;;;;;;;;;7.11;100.00;94468.22;5013085;28;19952;-75
2023/03/09 03:50:38;;;;;;;;;;;;;;;7.07;100.00;94470.53;5030675;28;19971;-75
2023/03/09 03:53:04;;;;;;;;;;;;;;;7.02;100.00;94464.50;5030393;28;20000;-75
2023/03/09 03:55:29;;;;;;;;;;;;;;;7.00;100.00;94484.78;5030438;28;19952;-75
2023/03/09 03:57:55;;;;;;;;;;;;;;;6.97;100.00;94486.06;5030566;28;19959;-74
2023/03/09 04:00:22;;;;;;;;;;;;;;;6.93;100.00;94482.38;5030570;28;19951;-74
2023/03/09 04:02:48;;;;;;;;;;;;;;;6.91;100.00;94492.25;5030843;28;20403;-75
2023/03/09 04:05:14;;;;;;;;;;;;;;;6.91;100.00;94485.22;5030711;28;19992;-74
2023/03/09 04:07:40;;;;;;;;;;;;;;;6.91;100.00;94492.25;4996445;28;19952;-75
2023/03/09 04:10:06;;;;;;;;;;;;;;;6.90;100.00;94498.47;5030565;28;20042;-74
2023/03/09 04:12:32;;;;;;;;;;;;;;;6.89;100.00;94515.16;5030536;28;19949;-75
2023/03/09 04:14:58;;;;;;;;;;;;;;;6.91;100.00;94528.72;5030839;28;20008;-74
2023/03/09 04:17:24;;;;;;;;;;;;;;;6.90;100.00;94524.53;5030366;28;19993;-74
2023/03/09 04:19:50;;;;;;;;;;;;;;;6.90;100.00;94540.16;5030341;28;19960;-75
2023/03/09 04:22:15;;;;;;;;;;;;;;;6.91;100.00;94539.16;5030106;28;19943;-74
2023/03/09 04:24:41;;;;;;;;;;;;;;;6.93;100.00;94541.50;5030373;28;19954;-75
2023/03/09 04:27:07;;;;;;;;;;;;;;;6.93;100.00;94559.72;5030037;28;19947;-75
2023/03/09 04:29:33;;;;;;;;;;;;;;;6.93;100.00;94580.56;5012539;28;19947;-74
2023/03/09 04:31:59;;;;;;;;;;;;;;;6.94;100.00;94595.97;5030072;28;20050;-74
2023/03/09 04:34:25;;;;;;;;;;;;;;;6.95;100.00;94589.75;5029536;28;19961;-75
2023/03/09 04:36:50;;;;;;;;;;;;;;;6.96;100.00;94580.91;5029901;28;19958;-74
2023/03/09 04:39:16;;;;;;;;;;;;;;;6.97;100.00;94592.09;5012361;28;19947;-75
2023/03/09 04:41:42;;;;;;;;;;;;;;;6.96;100.00;94588.72;5029850;28;19956;-75
2023/03/09 04:44:08;;;;;;;;;;;;;;;6.98;100.00;94601.50;5030222;28;19971;-74
2023/03/09 04:46:34;;;;;;;;;;;;;;;6.98;100.00;94596.28;5031140;28;19985;-76
2023/03/09 04:49:00;;;;;;;;;;;;;;;7.00;100.00;94607.28;5033400;28;20363;-76
2023/03/09 04:51:26;;;;;;;;;;;;;;;7.01;100.00;94616.66;5033437;28;20033;-76
2023/03/09 04:53:51;;;;;;;;;;;;;;;7.00;100.00;94617.69;5033255;28;19948;-75
2023/03/09 04:56:17;;;;;;;;;;;;;;;7.01;100.00;94632.28;5015762;28;20312;-75
2023/03/09 04:58:43;;;;;;;;;;;;;;;7.00;100.00;94636.72;5022176;28;19950;-75
2023/03/09 05:01:09;;;;;;;;;;;;;;;7.00;100.00;94638.53;5033030;28;19957;-75
2023/03/09 05:03:35;;;;;;;;;;;;;;;7.00;100.00;94639.31;5033213;28;20034;-76
2023/03/09 05:06:01;;;;;;;;;;;;;;;7.00;100.00;94636.72;5033249;28;20003;-75
2023/03/09 05:08:27;;;;;;;;;;;;;;;7.00;100.00;94647.13;5032903;28;19979;-75
2023/03/09 05:10:52;;;;;;;;;;;;;;;7.01;100.00;94646.09;5015190;28;20058;-76
2023/03/09 05:13:18;;;;;;;;;;;;;;;6.99;100.00;94649.97;5033214;28;20455;-75
2023/03/09 05:15:44;;;;;;;;;;;;;;;6.96;100.00;94658.28;5033035;28;19954;-75
2023/03/09 05:18:11;;;;;;;;;;;;;;;6.95;100.00;94656.69;5032852;28;19955;-75
2023/03/09 05:20:37;;;;;;;;;;;;;;;6.93;100.00;94664.75;5015354;28;19945;-75
2023/03/09 05:23:03;;;;;;;;;;;;;;;6.93;100.00;94662.16;5032995;28;19949;-75
2023/03/09 05:25:29;;;;;;;;;;;;;;;6.91;100.00;94669.44;5032814;28;19983;-76
2023/03/09 05:27:55;;;;;;;;;;;;;;;6.88;100.00;94678.47;5032642;28;20383;-75
2023/03/09 05:30:21;;;;;;;;;;;;;;;6.86;100.00;94688.34;5032408;28;19959;-75
2023/03/09 05:32:49;;;;;;;;;;;;;;;6.82;100.00;94700.28;5032216;28;20001;-74
2023/03/09 05:35:16;;;;;;;;;;;;;;;6.80;100.00;94704.16;5032437;28;19953;-75
2023/03/09 05:37:43;;;;;;;;;;;;;;;6.79;100.00;94702.59;5015062;28;19949;-74
2023/03/09 05:40:10;;;;;;;;;;;;;;;6.78;100.00;94714.78;5033703;28;19970;-75
2023/03/09 05:42:36;;;;;;;;;;;;;;;6.80;100.00;94723.16;5032812;28;19951;-75
2023/03/09 05:45:03;;;;;;;;;;;;;;;6.80;100.00;94735.41;5032079;28;19975;-76
2023/03/09 05:47:29;;;;;;;;;;;;;;;6.79;100.00;94731.25;5032453;28;20435;-75
2023/03/09 05:49:55;;;;;;;;;;;;;;;6.77;100.00;94735.91;5032215;28;19955;-76
2023/03/09 05:52:20;;;;;;;;;;;;;;;6.75;100.00;94743.94;5032145;28;19975;-76
2023/03/09 05:54:46;;;;;;;;;;;;;;;6.77;100.00;94747.09;5032583;28;19950;-75
2023/03/09 05:57:13;;;;;;;;;;;;;;;6.79;100.00;94752.09;5031857;28;21548;-74
2023/03/09 05:59:39;;;;;;;;;;;;;;;6.81;100.00;94763.06;5031670;28;19960;-76
2023/03/09 06:02:05;;;;;;;;;;;;;;;6.82;100.00;94762.03;5032209;28;19970;-75
2023/03/09 06:04:31;;;;;;;;;;;;;;;6.83;100.00;94774.03;5031970;28;19954;-74
2023/03/09 06:06:57;;;;;;;;;;;;;;;6.83;100.00;94769.59;5031966;28;19951;-75
2023/03/09 06:09:23;;;;;;;;;;;;;;;6.86;100.00;94783.97;5032660;28;19974;-74
2023/03/09 06:11:49;;;;;;;;;;;;;;;6.86;100.00;94779.53;5032446;28;20460;-75
2023/03/09 06:14:15;;;;;;;;;;;;;;;6.88;100.00;94785.31;5032293;28;19944;-74
2023/03/09 06:16:40;;;;;;;;;;;;;;;6.90;100.00;94792.91;5031982;28;19964;-76
2023/03/09 06:19:06;;;;;;;;;;;;;;;6.91;100.00;94794.50;5031773;28;19977;-74
2023/03/09 06:21:32;;;;;;;;;;;;;;;6.94;100.00;94791.41;5031912;28;19953;-75
2023/03/09 06:23:58;;;;;;;;;;;;;;;6.95;100.00;94787.78;5032106;28;19952;-75
2023/03/09 06:26:25;;;;;;;;;;;;;;;6.93;100.00;94808.09;5032077;28;19951;-74
2023/03/09 06:28:50;;;;;;;;;;;;;;;6.94;100.00;94821.91;5032064;28;20283;-75
2023/03/09 06:31:17;;;;;;;;;;;;;;;6.93;100.00;94823.72;5013953;28;20016;-76
2023/03/09 06:33:44;;;;;;;;;;;;;;;6.94;100.00;94808.88;5031468;28;19969;-75
2023/03/09 06:36:11;;;;;;;;;;;;;;;6.99;100.00;94820.19;5030527;28;19949;-75
2023/03/09 06:38:36;;;;;;;;;;;;;;;7.05;100.00;94831.47;5031736;28;19958;-75
2023/03/09 06:41:03;;;;;;;;;;;;;;;7.08;100.00;94823.19;5031856;28;20380;-76
2023/03/09 06:43:29;;;;;;;;;;;;;;;7.12;100.00;94824.28;5031806;28;19953;-75
2023/03/09 06:45:55;;;;;;;;;;;;;;;7.15;100.00;94821.19;5031390;28;20412;-75
2023/03/09 06:48:21;;;;;;;;;;;;;;;7.17;100.00;94820.97;5031730;28;19957;-75
2023/03/09 06:50:48;;;;;;;;;;;;;;;7.20;100.00;94823.91;5031701;28;19951;-75
2023/03/09 06:53:14;;;;;;;;;;;;;;;7.22;100.00;94824.44;5031655;28;19946;-74
2023/03/09 06:55:40;;;;;;;;;;;;;;;7.21;100.00;94825.47;5031228;28;19937;-75
2023/03/09 06:58:07;;;;;;;;;;;;;;;7.23;100.00;94835.66;5031326;28;19943;-74
2023/03/09 07:00:37;;;;;;;;;;;;;;;7.24;100.00;94837.25;5031359;28;19959;-75
2023/03/09 07:03:04;;;;;;;;;;;;;;;7.23;100.00;94846.09;5031443;28;19950;-75
2023/03/09 07:05:30;;;;;;;;;;;;;;;7.23;100.00;94836.47;5031556;28;20405;-75
2023/03/09 07:07:55;;;;;;;;;;;;;;;7.28;100.00;94833.91;5031320;28;20047;-75
2023/03/09 07:10:21;;;;;;;;;;;;;;;7.31;100.00;94849.09;5030956;28;19948;-74
2023/03/09 07:12:48;;;;;;;;;;;;;;;7.38;100.00;94848.94;5031036;28;19961;-74
2023/03/09 07:15:14;;;;;;;;;;;;;;;7.44;100.00;94852.44;5030888;28;19956;-75
2023/03/09 07:17:42;;;;;;;;;;;;;;;7.60;100.00;94845.63;5031092;28;20312;-74
2023/03/09 07:20:08;;;;;;;;;;;;;;;7.78;100.00;94863.63;5030862;28;19960;-74
2023/03/09 07:22:34;;;;;;;;;;;;;;;7.84;100.00;94864.50;5031258;28;19948;-74
2023/03/09 07:25:00;;;;;;;;;;;;;;;7.84;100.00;94864.50;5030764;28;20294;-74
2023/03/09 07:27:27;;;;;;;;;;;;;;;7.85;100.00;94882.53;5012813;28;19949;-75
2023/03/09 07:29:53;;;;;;;;;;;;;;;7.86;100.00;94886.72;5030916;28;19956;-74
2023/03/09 07:32:18;;;;;;;;;;;;;;;7.86;100.00;94870.28;5030574;28;19971;-75
2023/03/09 07:34:44;;;;;;;;;;;;;;;7.88;100.00;94882.06;5030876;28;20000;-75
2023/03/09 07:37:10;;;;;;;;;;;;;;;7.86;100.00;94888.53;5030696;28;20001;-75
2023/03/09 07:39:36;;;;;;;;;;;;;;;7.86;100.00;94912.03;5031030;28;19947;-75
2023/03/09 07:42:02;;;;;;;;;;;;;;;8.07;99.94;94913.13;5030882;28;20001;-74
2023/03/09 07:44:28;;;;;;;;;;;;;;;8.17;98.83;94915.06;5030579;28;20339;-74
2023/03/09 07:46:54;;;;;;;;;;;;;;;8.14;100.00;94926.78;5030496;28;19955;-75
2023/03/09 07:49:20;;;;;;;;;;;;;;;8.20;100.00;94938.88;5013810;28;19944;-75
2023/03/09 07:51:46;;;;;;;;;;;;;;;8.65;100.00;94932.75;5030458;28;19965;-75
2023/03/09 07:54:12;;;;;;;;;;;;;;;9.11;99.64;94933.25;5030776;28;19958;-75
2023/03/09 07:56:38;;;;;;;;;;;;;;;9.65;95.41;94911.50;5030541;28;20015;-75
2023/03/09 07:59:04;;;;;;;;;;;;;;;9.84;95.95;94927.63;5030479;28;19947;-75
2023/03/09 08:01:30;;;;;;;;;;;;;;;9.78;92.62;94899.84;5030411;28;19941;-75
2023/03/09 08:03:56;;;;;;;;;;;;;;;9.77;94.14;94929.69;5030419;28;20319;-76
2023/03/09 08:06:22;;;;;;;;;;;;;;;9.84;96.90;94947.78;5030879;28;19997;-75
2023/03/09 08:08:48;;;;;;;;;;;;;;;9.86;93.63;94936.03;5030508;28;20016;-75
2023/03/09 08:11:14;;;;;;;;;;;;;;;9.72;94.03;94934.84;5012657;28;19962;-75
2023/03/09 08:13:40;;;;;;;;;;;;;;;9.56;95.45;94949.66;5012753;28;20002;-75
2023/03/09 08:16:07;;;;;;;;;;;;;;;9.46;95.68;94963.41;5030401;28;19958;-75
2023/03/09 08:18:33;;;;;;;;;;;;;;;9.37;94.91;94964.13;5030315;28;20402;-75
2023/03/09 08:21:06;;;;;;;;;;;;;;;9.28;96.63;94971.59;5030732;28;19948;-75
2023/03/09 08:23:37;;;;;;;;;;;;;;;9.18;97.03;94982.75;5033893;28;19954;-75
2023/03/09 08:26:03;;;;;;;;;;;;;;;9.14;98.58;94989.50;5033828;28;19951;-75
2023/03/09 08:28:30;;;;;;;;;;;;;;;9.16;99.66;95004.97;5033505;28;19947;-74
2023/03/09 08:30:55;;;;;;;;;;;;;;;9.16;98.78;94995.28;5033512;28;19940;-75
2023/03/09 08:33:22;;;;;;;;;;;;;;;9.18;100.00;95006.31;5033361;28;19962;-75
2023/03/09 08:35:47;;;;;;;;;;;;;;;9.15;100.00;95014.63;5033649;28;19954;-75
2023/03/09 08:38:13;;;;;;;;;;;;;;;9.12;100.00;95005.44;5033504;28;19953;-75
2023/03/09 08:40:39;;;;;;;;;;;;;;;9.15;100.00;95017.22;5033542;28;19995;-74
2023/03/09 08:43:05;;;;;;;;;;;;;;;9.26;100.00;95018.13;5033336;28;19954;-74
2023/03/09 08:45:31;;;;;;;;;;;;;;;9.30;100.00;95012.19;5033342;28;19974;-74
2023/03/09 08:47:57;;;;;;;;;;;;;;;9.36;100.00;95023.50;5032486;28;19963;-74
2023/03/09 08:50:23;;;;;;;;;;;;;;;9.42;100.00;95012.03;5033499;28;19953;-74
2023/03/09 08:52:49;;;;;;;;;;;;;;;9.54;99.80;95006.69;5033299;28;19985;-76
2023/03/09 08:55:15;;;;;;;;;;;;;;;9.70;98.50;95002.38;5033295;28;19948;-74
2023/03/09 08:57:41;;;;;;;;;;;;;;;9.83;98.65;95012.47;5033234;28;19949;-74
2023/03/09 09:00:09;;;;;;;;;;;;;;;9.91;97.51;95016.44;5032972;28;19999;-75
2023/03/09 09:02:36;;;;;;;;;;;;;;;9.93;96.93;95012.56;5033426;28;19958;-74
2023/03/09 09:05:02;;;;;;;;;;;;;;;9.94;98.35;95036.91;5015203;28;19956;-75
2023/03/09 09:07:28;;;;;;;;;;;;;;;9.82;99.53;95037.06;5033274;28;19954;-75
2023/03/09 09:09:54;;;;;;;;;;;;;;;9.71;99.74;95044.00;5032947;28;20043;-76
2023/03/09 09:12:20;;;;;;;;;;;;;;;9.62;100.00;95048.13;5032726;28;19967;-76
2023/03/09 09:14:46;;;;;;;;;;;;;;;9.58;100.00;95065.34;5032833;28;20392;-76
2023/03/09 09:17:12;;;;;;;;;;;;;;;9.54;100.00;95077.34;5033099;28;19964;-76
2023/03/09 09:19:38;;;;;;;;;;;;;;;9.47;100.00;95085.38;5032898;28;19945;-76
2023/03/09 09:22:05;;;;;;;;;;;;;;;9.35;100.00;95089.94;5015380;28;20327;-77
2023/03/09 09:24:32;;;;;;;;;;;;;;;9.28;100.00;95090.13;5033011;28;20307;-75
2023/03/09 09:26:59;;;;;;;;;;;;;;;9.19;100.00;95096.78;5032619;28;19946;-75
2023/03/09 09:29:26;;;;;;;;;;;;;;;9.14;100.00;95097.53;5032974;28;19951;-75
2023/03/09 09:31:52;;;;;;;;;;;;;;;9.14;100.00;95107.19;5032536;28;19967;-76
2023/03/09 09:34:18;;;;;;;;;;;;;;;9.15;100.00;95106.16;5032577;28;19958;-76
2023/03/09 09:36:45;;;;;;;;;;;;;;;9.12;100.00;95106.66;5032290;28;19950;-76
2023/03/09 09:39:12;;;;;;;;;;;;;;;9.16;100.00;95112.97;5032531;28;19952;-76
2023/03/09 09:41:38;;;;;;;;;;;;;;;9.20;100.00;95105.41;5032458;28;19976;-75
2023/03/09 09:44:08;;;;;;;;;;;;;;;9.25;100.00;95103.66;5032749;28;19973;-76
2023/03/09 09:46:35;;;;;;;;;;;;;;;9.25;100.00;95106.28;5032675;28;19956;-75
2023/03/09 09:49:03;;;;;;;;;;;;;;;9.25;100.00;95108.13;5032636;28;19973;-76
2023/03/09 09:51:41;;;;;;;;;;;;;;;9.24;100.00;95111.75;5032043;28;19945;-75
2023/03/09 09:54:31;;;;;;;;;;;;;;;9.19;100.00;95115.09;5032403;28;19947;-75
2023/03/09 09:56:59;;;;;;;;;;;;;;;9.16;100.00;95120.03;5032253;28;20316;-78
2023/03/09 09:59:40;;;;;;;;;;;;;;;9.16;100.00;95133.13;5047568;28;19948;-80
2023/03/09 10:02:08;;;;;;;;;;;;;;;9.16;100.00;95122.66;5031984;28;19958;-77
2023/03/09 10:04:53;;;;;;;;;;;;;;;9.11;100.00;95141.66;5032146;28;19945;-78
2023/03/09 10:07:21;;;;;;;;;;;;;;;9.04;100.00;95141.06;5032182;28;19955;-78
2023/03/09 10:09:51;;;;;;;;;;;;;;;9.02;100.00;95146.50;5032334;28;19945;-78
2023/03/09 10:12:17;;;;;;;;;;;;;;;9.02;100.00;95141.28;5031852;28;19962;-78
2023/03/09 10:14:43;;;;;;;;;;;;;;;9.04;100.00;95143.66;5032080;28;20425;-78
2023/03/09 10:17:27;;;;;;;;;;;;;;;9.09;100.00;95147.16;5014259;28;19952;-78
2023/03/09 10:19:54;;;;;;;;;;;;;;;9.10;100.00;95140.09;5031898;28;19941;-78
2023/03/09 10:22:24;;;;;;;;;;;;;;;9.10;100.00;95146.09;5014323;28;20328;-77
2023/03/09 10:24:51;;;;;;;;;;;;;;;9.14;100.00;95141.19;5031658;28;20406;-77
2023/03/09 10:27:19;;;;;;;;;;;;;;;9.20;100.00;95131.56;5031785;28;19948;-78
2023/03/09 10:29:51;;;;;;;;;;;;;;;9.30;100.00;95135.16;5031850;28;19958;-78
2023/03/09 10:32:21;;;;;;;;;;;;;;;9.43;100.00;95141.03;5031511;28;19957;-78
2023/03/09 10:34:53;;;;;;;;;;;;;;;9.60;100.00;95133.16;5013931;28;19954;-78
2023/03/09 10:37:22;;;;;;;;;;;;;;;9.70;96.02;95118.34;5031638;28;19949;-77
2023/03/09 10:39:48;;;;;;;;;;;;;;;9.80;94.67;95101.94;5031640;28;19942;-78
2023/03/09 10:42:24;;;;;;;;;;;;;;;9.94;94.61;95107.59;5031653;28;19960;-78
2023/03/09 10:45:11;;;;;;;;;;;;;;;10.14;95.16;95120.09;5030471;28;19975;-78
2023/03/09 10:47:50;;;;;;;;;;;;;;;10.34;91.51;95082.84;5034913;28;19956;-77
2023/03/09 10:50:16;;;;;;;;;;;;;;;10.56;93.84;95116.84;5023380;28;20324;-77
2023/03/09 10:52:42;;;;;;;;;;;;;;;10.85;88.43;95082.44;5031440;28;20044;-78
2023/03/09 10:55:31;;;;;;;;;;;;;;;11.03;85.95;95071.53;5031926;28;19955;-78
2023/03/09 10:58:17;;;;;;;;;;;;;;;11.22;84.79;95040.41;5021487;28;19946;-78
2023/03/09 11:01:03;;;;;;;;;;;;;;;11.49;86.53;95069.13;5031311;28;20312;-77
2023/03/09 11:03:39;;;;;;;;;;;;;;;11.84;84.94;95058.97;5031861;28;19956;-77
2023/03/09 11:06:08;;;;;;;;;;;;;;;12.14;83.02;95038.03;5031379;28;19939;-78
2023/03/09 11:08:34;;;;;;;;;;;;;;;12.33;76.90;94992.84;5031279;28;19963;-78
2023/03/09 11:11:02;;;;;;;;;;;;;;;12.39;76.49;95000.47;5031381;28;19952;-77
2023/03/09 11:13:27;;;;;;;;;;;;;;;12.47;77.35;95020.16;5031067;28;19958;-77
2023/03/09 11:16:05;;;;;;;;;;;;;;;12.42;74.69;94987.84;5030963;28;19953;-77
2023/03/09 11:18:31;;;;;;;;;;;;;;;12.19;75.00;94998.63;5031114;28;19948;-77
2023/03/09 11:20:56;;;;;;;;;;;;;;;12.11;76.23;95004.38;5031041;28;19947;-77
2023/03/09 11:23:26;;;;;;;;;;;;;;;12.00;77.03;95004.66;5030900;28;19957;-77
2023/03/09 11:26:05;;;;;;;;;;;;;;;12.05;76.52;95020.41;5030800;28;20070;-76
2023/03/09 11:28:37;;;;;;;;;;;;;;;12.13;75.02;95004.13;5013287;28;20392;-77
2023/03/09 11:31:09;;;;;;;;;;;;;;;12.15;77.13;95025.69;5030924;28;19971;-77
2023/03/09 11:33:36;;;;;;;;;;;;;;;12.11;76.85;95022.78;5030560;28;20424;-77
2023/03/09 11:36:02;;;;;;;;;;;;;;;12.08;77.16;95025.94;5030838;28;19946;-75
2023/03/09 11:38:29;;;;;;;;;;;;;;;12.01;76.62;95024.63;5030631;28;19961;-76
2023/03/09 11:41:03;;;;;;;;;;;;;;;11.99;78.38;95038.03;5030817;28;20331;-76
2023/03/09 11:43:31;;;;;;;;;;;;;;;12.03;75.91;95014.63;5030648;28;19951;-76
2023/03/09 11:46:00;;;;;;;;;;;;;;;12.19;75.95;95010.97;5030754;28;19959;-76
2023/03/09 11:48:31;;;;;;;;;;;;;;;12.29;76.75;95021.50;5030193;28;20328;-76
2023/03/09 11:51:01;;;;;;;;;;;;;;;12.28;75.39;95000.72;5030898;28;19950;-76
2023/03/09 11:53:30;;;;;;;;;;;;;;;12.08;73.89;94988.38;5030458;28;19964;-75
2023/03/09 11:56:08;;;;;;;;;;;;;;;11.94;76.02;95006.50;5030988;28;19963;-76
2023/03/09 11:58:37;;;;;;;;;;;;;;;12.03;77.87;95009.38;5016366;28;19953;-76
2023/03/09 12:01:23;;;;;;;;;;;;;;;12.43;77.20;95013.06;5034043;28;19951;-76
2023/03/09 12:03:54;;;;;;;;;;;;;;;12.83;76.80;94993.81;5033370;28;19996;-76
2023/03/09 12:06:27;;;;;;;;;;;;;;;13.03;72.48;94961.38;5034022;28;19952;-76
2023/03/09 12:08:55;;;;;;;;;;;;;;;13.15;71.64;94959.22;5034017;28;19948;-76
2023/03/09 12:11:26;;;;;;;;;;;;;;;13.21;69.46;94944.19;5033703;28;20406;-76
2023/03/09 12:13:57;;;;;;;;;;;;;;;13.24;70.45;94924.44;5033981;28;19976;-76
2023/03/09 12:16:25;;;;;;;;;;;;;;;13.00;69.48;94927.72;5034032;28;19956;-75
2023/03/09 12:19:27;;;;;;;;;;;;;;;12.98;71.29;94945.63;5033830;28;20405;-76
2023/03/09 12:22:02;;;;;;;;;;;;;;;13.03;71.59;94942.94;5054914;28;19952;-76
2023/03/09 12:24:31;;;;;;;;;;;;;;;13.15;71.54;94943.41;5036864;28;20433;-76
2023/03/09 12:27:00;;;;;;;;;;;;;;;13.26;70.31;94933.63;5033660;28;20415;-75
2023/03/09 12:29:29;;;;;;;;;;;;;;;13.18;67.63;94913.13;5033529;28;20419;-76
2023/03/09 12:32:14;;;;;;;;;;;;;;;13.13;68.57;94932.38;5033546;28;19950;-75
2023/03/09 12:34:41;;;;;;;;;;;;;;;12.99;68.13;94928.75;5033441;28;19955;-76
2023/03/09 12:37:25;;;;;;;;;;;;;;;12.88;69.03;94940.38;5033603;28;19954;-76
2023/03/09 12:39:58;;;;;;;;;;;;;;;12.78;68.20;94951.72;5033421;28;20361;-76
2023/03/09 12:42:26;;;;;;;;;;;;;;;12.66;69.72;94969.63;5033312;28;19948;-76
2023/03/09 12:44:52;;;;;;;;;;;;;;;12.57;70.31;94974.66;5033218;28;19973;-76
2023/03/09 12:47:37;;;;;;;;;;;;;;;12.48;70.07;94966.53;5033939;28;19951;-76
2023/03/09 12:50:05;;;;;;;;;;;;;;;12.38;70.98;94984.94;5033193;28;19950;-75